createdAt,value
2022-11-22T00:00:20.778Z,8.02
2022-11-22T00:02:49.658Z,8.52
2022-11-22T00:05:17.304Z,7.72
2022-11-22T00:07:44.879Z,8.27
2022-11-22T00:10:13.662Z,7.47
2022-11-22T00:12:41.570Z,8.70
2022-11-22T00:15:09.729Z,8.82
2022-11-22T00:17:37.374Z,8.35
2022-11-22T00:20:07.685Z,8.15
2022-11-22T00:22:39.712Z,8.07
2022-11-22T00:25:10.810Z,8.75
2022-11-22T00:27:38.322Z,8.50
2022-11-22T00:30:06.417Z,8.50
2022-11-22T00:32:33.867Z,7.32
2022-11-22T00:35:01.432Z,8.05
2022-11-22T00:37:30.873Z,8.32
2022-11-22T00:39:58.508Z,8.32
2022-11-22T00:42:26.720Z,8.02
2022-11-22T00:44:54.200Z,8.75
2022-11-22T00:47:21.638Z,8.35
2022-11-22T00:49:49.109Z,7.82
2022-11-22T00:52:16.587Z,8.95
2022-11-22T00:54:48.853Z,8.55
2022-11-22T00:57:20.705Z,9.93
2022-11-22T00:59:48.163Z,8.88
2022-11-22T01:02:15.644Z,9.73
2022-11-22T01:04:43.143Z,8.63
2022-11-22T01:07:10.854Z,8.20
2022-11-22T01:09:38.417Z,9.48
2022-11-22T01:12:07.441Z,8.55
2022-11-22T01:14:34.923Z,9.02
2022-11-22T01:17:02.516Z,8.80
2022-11-22T01:19:30.377Z,8.65
2022-11-22T01:21:58.014Z,10.27
2022-11-22T01:24:25.656Z,8.70
2022-11-22T01:26:53.120Z,8.57
2022-11-22T01:29:22.013Z,8.57
2022-11-22T01:31:49.495Z,8.35
2022-11-22T01:34:16.978Z,9.55
2022-11-22T01:36:44.465Z,8.75
2022-11-22T01:39:11.928Z,9.43
2022-11-22T01:41:39.554Z,8.27
2022-11-22T01:44:20.137Z,8.77
2022-11-22T01:46:50.246Z,8.57
2022-11-22T01:49:22.934Z,8.38
2022-11-22T01:51:53.510Z,9.57
2022-11-22T01:54:23.262Z,8.65
2022-11-22T01:56:53.626Z,8.57
2022-11-22T01:59:22.615Z,9.02
2022-11-22T02:01:51.854Z,9.32
2022-11-22T02:04:20.561Z,8.68
2022-11-22T02:06:50.424Z,9.20
2022-11-22T02:09:18.016Z,8.82
2022-11-22T02:11:48.250Z,9.50
2022-11-22T02:14:17.197Z,8.85
2022-11-22T02:16:44.681Z,9.57
2022-11-22T02:19:15.810Z,9.60
2022-11-22T02:21:44.188Z,8.57
2022-11-22T02:24:16.123Z,8.68
2022-11-22T02:26:44.985Z,10.63
2022-11-22T02:29:12.862Z,8.57
2022-11-22T02:31:42.304Z,9.32
2022-11-22T02:34:09.962Z,9.25
2022-11-22T02:36:40.467Z,9.23
2022-11-22T02:39:09.264Z,9.82
2022-11-22T02:41:37.373Z,9.25
2022-11-22T02:44:07.838Z,9.40
2022-11-22T02:46:35.281Z,9.65
2022-11-22T02:49:02.763Z,9.43
2022-11-22T02:51:30.286Z,9.77
2022-11-22T02:53:57.871Z,10.20
2022-11-22T02:56:25.328Z,8.48
2022-11-22T02:58:52.848Z,8.90
2022-11-22T03:01:21.760Z,9.35
2022-11-22T03:03:49.312Z,9.02
2022-11-22T03:06:16.818Z,8.80
2022-11-22T03:08:44.260Z,10.10
2022-11-22T03:11:11.740Z,9.45
2022-11-22T03:13:39.202Z,8.88
2022-11-22T03:16:06.722Z,10.88
2022-11-22T03:18:35.969Z,9.48
2022-11-22T03:21:03.567Z,11.35
2022-11-22T03:23:31.297Z,9.13
2022-11-22T03:25:58.777Z,9.90
2022-11-22T03:28:26.895Z,10.50
2022-11-22T03:30:54.401Z,9.40
2022-11-22T03:33:21.877Z,10.18
2022-11-22T03:35:50.733Z,9.65
2022-11-22T03:38:18.189Z,9.82
2022-11-22T03:40:47.234Z,9.35
2022-11-22T03:43:14.754Z,9.57
2022-11-22T03:45:45.549Z,10.32
2022-11-22T03:48:13.026Z,9.80
2022-11-22T03:50:40.649Z,9.98
2022-11-22T03:53:09.594Z,9.25
2022-11-22T03:55:37.114Z,10.25
2022-11-22T03:58:04.760Z,10.13
2022-11-22T04:00:32.590Z,10.13
2022-11-22T04:03:00.155Z,10.70
2022-11-22T04:05:27.751Z,9.73
2022-11-22T04:07:58.088Z,10.75
2022-11-22T04:10:27.066Z,10.95
2022-11-22T04:12:57.425Z,10.95
2022-11-22T04:15:23.889Z,11.48
2022-11-22T04:17:51.431Z,11.18
2022-11-22T04:20:37.439Z,11.38
2022-11-22T04:23:05.904Z,12.52
2022-11-22T04:25:34.626Z,12.07
2022-11-22T04:28:02.218Z,11.55
2022-11-22T04:30:43.948Z,11.68
2022-11-22T04:33:11.878Z,12.25
2022-11-22T04:35:40.118Z,12.15
2022-11-22T04:38:07.765Z,13.05
2022-11-22T04:40:36.694Z,13.25
2022-11-22T04:43:21.797Z,12.35
2022-11-22T04:45:49.422Z,11.73
2022-11-22T04:48:17.102Z,13.25
2022-11-22T04:51:02.454Z,12.23
2022-11-22T04:53:30.359Z,12.60
2022-11-22T04:55:59.197Z,13.40
2022-11-22T04:58:26.751Z,12.68
2022-11-22T05:00:54.263Z,12.80
2022-11-22T05:03:22.008Z,12.88
2022-11-22T05:05:49.457Z,12.95
2022-11-22T05:08:16.933Z,12.40
2022-11-22T05:10:59.508Z,12.57
2022-11-22T05:13:29.862Z,12.73
2022-11-22T05:15:57.416Z,13.40
2022-11-22T05:18:25.066Z,13.68
2022-11-22T05:20:52.885Z,13.57
2022-11-22T05:23:38.411Z,13.98
2022-11-22T05:26:06.581Z,12.93
2022-11-22T05:28:36.259Z,12.73
2022-11-22T05:31:07.308Z,13.38
2022-11-22T05:33:36.327Z,12.45
2022-11-22T05:36:04.054Z,12.48
2022-11-22T05:38:31.528Z,13.20
2022-11-22T05:40:59.029Z,11.73
2022-11-22T05:43:26.541Z,12.70
2022-11-22T05:45:55.462Z,13.00
2022-11-22T05:48:22.920Z,13.95
2022-11-22T05:50:50.399Z,13.70
2022-11-22T05:53:17.854Z,11.88
2022-11-22T05:55:45.348Z,12.38
2022-11-22T05:58:12.818Z,14.25
2022-11-22T06:00:40.384Z,13.95
2022-11-22T06:03:09.222Z,13.43
2022-11-22T06:05:36.680Z,13.45
2022-11-22T06:08:04.363Z,13.15
2022-11-22T06:10:34.256Z,12.23
2022-11-22T06:13:01.702Z,12.27
2022-11-22T06:15:29.224Z,13.88
2022-11-22T06:17:56.721Z,13.10
2022-11-22T06:20:25.557Z,12.20
2022-11-22T06:22:53.130Z,13.95
2022-11-22T06:25:20.702Z,13.45
2022-11-22T06:27:48.142Z,13.20
2022-11-22T06:30:16.169Z,12.43
2022-11-22T06:32:43.679Z,12.93
2022-11-22T06:35:11.244Z,12.02
2022-11-22T06:37:40.155Z,13.15
2022-11-22T06:40:11.612Z,12.55
2022-11-22T06:42:39.072Z,12.70
2022-11-22T06:45:07.016Z,13.50
2022-11-22T06:47:34.437Z,12.77
2022-11-22T06:50:01.905Z,14.63
2022-11-22T06:52:29.421Z,12.60
2022-11-22T06:54:58.275Z,13.23
2022-11-22T06:57:25.728Z,12.50
2022-11-22T06:59:53.175Z,11.38
2022-11-22T07:02:21.012Z,13.02
2022-11-22T07:05:17.193Z,12.15
2022-11-22T07:07:36.293Z,12.25
2022-11-22T07:10:05.545Z,11.70
2022-11-22T07:12:33.089Z,12.40
2022-11-22T07:15:00.513Z,11.75
2022-11-22T07:17:27.990Z,11.88
2022-11-22T07:19:55.478Z,12.32
2022-11-22T07:22:23.021Z,12.60
2022-11-22T07:24:50.506Z,12.07
2022-11-22T07:27:19.330Z,13.02
2022-11-22T07:29:46.853Z,11.80
2022-11-22T07:32:14.370Z,11.48
2022-11-22T07:34:41.865Z,12.82
2022-11-22T07:37:09.693Z,12.38
2022-11-22T07:39:37.149Z,12.00
2022-11-22T07:42:04.690Z,10.63
2022-11-22T07:44:33.583Z,12.50
2022-11-22T07:47:01.059Z,11.75
2022-11-22T07:49:28.887Z,11.52
2022-11-22T07:51:56.600Z,11.32
2022-11-22T07:54:24.139Z,12.50
2022-11-22T07:56:51.610Z,13.35
2022-11-22T07:59:19.146Z,10.93
2022-11-22T08:01:48.013Z,12.45
2022-11-22T08:04:15.857Z,11.60
2022-11-22T08:06:43.415Z,11.57
2022-11-22T08:09:11.911Z,12.30
2022-11-22T08:11:39.432Z,11.65
2022-11-22T08:14:06.920Z,11.55
2022-11-22T08:16:34.537Z,10.60
2022-11-22T08:19:03.610Z,11.55
2022-11-22T08:21:31.080Z,11.65
2022-11-22T08:23:59.311Z,11.63
2022-11-22T08:26:27.190Z,12.82
2022-11-22T08:28:54.785Z,11.98
2022-11-22T08:31:22.302Z,11.63
2022-11-22T08:33:49.805Z,12.82
2022-11-22T08:36:18.583Z,12.40
2022-11-22T08:38:46.114Z,12.95
2022-11-22T08:41:13.581Z,12.07
2022-11-22T08:43:41.075Z,11.48
2022-11-22T08:46:08.886Z,12.57
2022-11-22T08:48:37.602Z,11.20
2022-11-22T08:51:06.013Z,11.65
2022-11-22T08:53:35.510Z,12.70
2022-11-22T08:56:03.608Z,12.00
2022-11-22T08:58:31.367Z,12.23
2022-11-22T09:01:04.133Z,12.68
2022-11-22T09:03:31.638Z,12.15
2022-11-22T09:09:02.739Z,11.15
2022-11-22T09:11:37.862Z,11.93
2022-11-22T09:14:05.382Z,12.45
2022-11-22T09:16:32.905Z,13.27
2022-11-22T09:19:00.558Z,12.07
2022-11-22T09:21:28.127Z,11.88
2022-11-22T09:23:57.004Z,11.98
2022-11-22T09:26:25.361Z,11.95
2022-11-22T09:28:53.488Z,12.95
2022-11-22T09:31:21.726Z,12.50
2022-11-22T09:33:49.858Z,13.73
2022-11-22T09:36:18.313Z,11.45
2022-11-22T09:38:45.830Z,10.60
2022-11-22T09:41:24.142Z,11.52
2022-11-22T09:43:57.494Z,12.23
2022-11-22T09:46:29.830Z,12.55
2022-11-22T09:49:04.586Z,12.70
2022-11-22T09:51:35.908Z,11.35
2022-11-22T09:54:06.168Z,11.75
2022-11-22T09:56:35.149Z,11.90
2022-11-22T09:59:05.644Z,11.23
2022-11-22T10:01:38.933Z,11.73
2022-11-22T10:04:07.410Z,11.10
2022-11-22T10:06:35.707Z,11.10
2022-11-22T10:09:07.733Z,11.82
2022-11-22T10:11:39.310Z,11.75
2022-11-22T10:16:37.132Z,10.55
2022-11-22T10:19:11.166Z,12.60
2022-11-22T10:21:38.701Z,11.35
2022-11-22T10:24:06.740Z,11.40
2022-11-22T10:26:35.024Z,11.40
2022-11-22T10:29:10.010Z,11.55
2022-11-22T10:31:39.202Z,11.18
2022-11-22T10:34:12.502Z,11.57
2022-11-22T10:36:45.189Z,12.25
2022-11-22T10:39:22.133Z,12.93
2022-11-22T10:41:55.798Z,12.10
2022-11-22T10:44:32.029Z,12.32
2022-11-22T10:47:03.022Z,10.93
2022-11-22T10:49:37.149Z,11.38
2022-11-22T10:52:10.312Z,11.90
2022-11-22T10:54:43.225Z,11.50
2022-11-22T10:57:15.730Z,11.48
2022-11-22T10:59:53.905Z,11.57
2022-11-22T11:02:37.761Z,11.27
2022-11-22T11:05:06.573Z,11.55
2022-11-22T11:07:35.147Z,11.35
2022-11-22T11:10:17.442Z,11.65
2022-11-22T11:12:49.556Z,11.50
2022-11-22T11:15:21.289Z,11.25
2022-11-22T11:17:51.866Z,10.57
2022-11-22T11:20:22.174Z,10.55
2022-11-22T11:23:13.728Z,10.23
2022-11-22T11:25:40.251Z,11.00
2022-11-22T11:28:09.232Z,11.00
2022-11-22T11:30:42.770Z,11.68
2022-11-22T11:33:18.744Z,12.70
2022-11-22T11:35:47.063Z,10.15
2022-11-22T11:38:27.353Z,11.07
2022-11-22T11:40:54.854Z,10.70
2022-11-22T11:43:23.043Z,10.40
2022-11-22T11:45:52.590Z,10.32
2022-11-22T11:48:29.995Z,10.60
2022-11-22T11:51:07.394Z,11.93
2022-11-22T11:53:35.275Z,10.75
2022-11-22T11:56:35.806Z,10.57
2022-11-22T11:59:08.577Z,9.90
2022-11-22T12:01:39.089Z,10.05
2022-11-22T12:04:07.627Z,11.25
2022-11-22T12:06:35.130Z,10.15
2022-11-22T12:09:08.912Z,11.10
2022-11-22T12:11:41.508Z,11.90
2022-11-22T12:14:20.028Z,11.13
2022-11-22T12:16:50.477Z,10.38
2022-11-22T12:19:24.851Z,10.45
2022-11-22T12:21:57.159Z,10.27
2022-11-22T12:24:45.587Z,10.30
2022-11-22T12:27:14.303Z,10.82
2022-11-22T12:29:43.606Z,11.98
2022-11-22T12:32:15.631Z,10.82
2022-11-22T12:34:48.069Z,11.13
2022-11-22T12:37:18.367Z,10.70
2022-11-22T12:39:47.790Z,10.57
2022-11-22T12:42:21.570Z,11.13
2022-11-22T12:44:54.058Z,11.60
2022-11-22T12:47:25.587Z,12.15
2022-11-22T12:49:54.374Z,10.88
2022-11-22T12:52:24.535Z,12.13
2022-11-22T12:55:01.413Z,11.23
2022-11-22T12:57:35.544Z,11.52
2022-11-22T13:00:07.623Z,11.52
2022-11-22T13:02:39.733Z,11.25
2022-11-22T13:05:11.082Z,12.40
2022-11-22T13:10:09.052Z,11.40
2022-11-22T13:12:38.672Z,12.07
2022-11-22T13:15:06.681Z,11.32
2022-11-22T13:17:34.971Z,12.50
2022-11-22T13:20:06.692Z,11.02
2022-11-22T13:22:37.105Z,12.70
2022-11-22T13:25:12.212Z,12.50
2022-11-22T13:27:41.946Z,12.27
2022-11-22T13:30:17.785Z,12.15
2022-11-22T13:32:48.244Z,11.45
2022-11-22T13:35:22.195Z,11.60
2022-11-22T13:37:50.922Z,11.15
2022-11-22T13:40:24.496Z,11.60
2022-11-22T13:43:12.551Z,12.70
2022-11-22T13:45:47.221Z,12.23
2022-11-22T13:48:15.050Z,12.25
2022-11-22T13:50:57.684Z,11.30
2022-11-22T13:53:29.212Z,11.75
2022-11-22T13:55:57.681Z,11.88
2022-11-22T13:58:50.421Z,11.00
2022-11-22T14:01:32.534Z,10.82
2022-11-22T14:04:14.921Z,11.32
2022-11-22T14:06:47.737Z,12.60
2022-11-22T14:09:18.228Z,11.25
2022-11-22T14:11:52.032Z,12.13
2022-11-22T14:14:22.278Z,11.82
2022-11-22T14:16:52.830Z,11.93
2022-11-22T14:19:27.824Z,11.35
2022-11-22T14:22:03.640Z,11.10
2022-11-22T14:24:39.264Z,12.57
2022-11-22T14:27:11.770Z,11.45
2022-11-22T14:29:53.933Z,12.52
2022-11-22T14:32:22.489Z,11.60
2022-11-22T14:35:08.781Z,11.55
2022-11-22T14:37:45.049Z,12.35
2022-11-22T14:40:27.800Z,11.13
2022-11-22T14:42:57.103Z,11.65
2022-11-22T14:45:27.987Z,12.77
2022-11-22T14:48:06.343Z,11.90
2022-11-22T14:50:34.662Z,11.93
2022-11-22T14:53:08.217Z,11.98
2022-11-22T14:55:37.287Z,12.52
2022-11-22T14:58:07.190Z,12.32
2022-11-22T15:00:43.514Z,13.18
2022-11-22T15:03:32.631Z,12.50
2022-11-22T15:09:12.527Z,11.82
2022-11-22T15:09:14.915Z,12.50
2022-11-22T15:11:59.486Z,12.15
2022-11-22T15:14:39.552Z,12.77
2022-11-22T15:59:40.286Z,14.68
2022-11-22T16:02:14.848Z,13.95
2022-11-22T16:04:47.897Z,13.25
2022-11-22T16:07:23.094Z,13.85
2022-11-22T16:09:51.022Z,14.48
2022-11-22T16:12:27.921Z,13.85
2022-11-22T16:14:56.088Z,13.07
2022-11-22T16:17:29.273Z,13.32
2022-11-22T16:20:15.682Z,14.27
2022-11-22T16:22:43.202Z,13.02
2022-11-22T16:25:23.139Z,13.05
2022-11-22T16:27:50.861Z,14.05
2022-11-22T16:30:23.504Z,13.60
2022-11-22T16:32:56.403Z,13.80
2022-11-22T16:35:31.056Z,13.13
2022-11-22T16:37:58.591Z,13.60
2022-11-22T16:40:26.227Z,13.15
2022-11-22T16:42:53.748Z,15.27
2022-11-22T16:45:21.974Z,14.48
2022-11-22T16:47:58.630Z,13.90
2022-11-22T16:50:39.770Z,15.68
2022-11-22T16:53:10.025Z,14.48
2022-11-22T16:55:37.537Z,15.02
2022-11-22T16:58:12.108Z,14.23
2022-11-22T17:00:39.625Z,13.82
2022-11-22T17:03:07.197Z,13.52
2022-11-22T17:05:34.689Z,13.55
2022-11-22T17:08:03.506Z,15.00
2022-11-22T17:10:31.798Z,14.85
2022-11-22T17:12:59.277Z,13.73
2022-11-22T17:15:27.158Z,15.05
2022-11-22T17:17:54.631Z,15.05
2022-11-22T17:20:22.203Z,13.90
2022-11-22T17:22:49.665Z,15.35
2022-11-22T17:25:18.554Z,15.20
2022-11-22T17:27:50.207Z,13.52
2022-11-22T17:30:20.492Z,12.93
2022-11-22T17:32:47.998Z,14.10
2022-11-22T17:35:15.549Z,14.13
2022-11-22T17:37:43.017Z,13.63
2022-11-22T17:40:11.192Z,13.65
2022-11-22T17:42:41.389Z,14.63
2022-11-22T17:45:09.166Z,14.23
2022-11-22T17:47:36.713Z,13.82
2022-11-22T17:50:04.325Z,14.85
2022-11-22T17:52:32.105Z,15.00
2022-11-22T17:55:05.545Z,14.43
2022-11-22T17:57:33.845Z,14.40
2022-11-22T18:00:02.799Z,14.23
2022-11-22T18:02:30.424Z,13.75
2022-11-22T18:04:57.981Z,14.02
2022-11-22T18:07:28.457Z,13.13
2022-11-22T18:09:56.142Z,14.18
2022-11-22T18:12:23.622Z,14.80
2022-11-22T18:14:51.097Z,14.52
2022-11-22T18:17:19.938Z,14.77
2022-11-22T18:19:47.446Z,13.13
2022-11-22T18:22:14.901Z,14.80
2022-11-22T18:24:42.386Z,14.65
2022-11-22T18:27:09.965Z,15.55
2022-11-22T18:29:44.584Z,13.30
2022-11-22T18:32:12.120Z,14.15
2022-11-22T18:34:41.634Z,14.82
2022-11-22T18:37:09.324Z,13.50
2022-11-22T18:39:39.041Z,14.43
2022-11-22T18:42:07.443Z,14.23
2022-11-22T18:44:35.075Z,13.02
2022-11-22T18:47:02.689Z,13.75
2022-11-22T18:49:30.741Z,14.43
2022-11-22T18:51:59.969Z,13.10
2022-11-22T18:54:27.493Z,13.30
2022-11-22T18:56:55.050Z,14.48
2022-11-22T18:59:22.585Z,13.02
2022-11-22T19:01:50.162Z,14.32
2022-11-22T19:04:17.785Z,14.13
2022-11-22T19:06:45.857Z,13.88
2022-11-22T19:09:14.810Z,14.30
2022-11-22T19:11:42.299Z,14.20
2022-11-22T19:14:09.768Z,14.23
2022-11-22T19:16:37.310Z,13.88
2022-11-22T19:19:04.895Z,13.38
2022-11-22T19:21:32.432Z,14.57
2022-11-22T19:23:59.915Z,12.95
2022-11-22T19:26:29.016Z,14.65
2022-11-22T19:28:57.562Z,13.38
2022-11-22T19:31:26.417Z,13.65
2022-11-22T19:33:54.093Z,13.90
2022-11-22T19:36:25.316Z,15.63
2022-11-22T19:38:58.210Z,13.43
2022-11-22T19:41:26.237Z,14.40
2022-11-22T19:43:56.623Z,14.50
2022-11-22T19:46:24.444Z,14.85
2022-11-22T19:48:52.338Z,14.23
2022-11-22T19:51:19.842Z,14.23
2022-11-22T19:53:47.389Z,15.10
2022-11-22T19:56:15.882Z,13.60
2022-11-22T19:58:44.129Z,13.02
2022-11-22T20:01:14.156Z,13.70
2022-11-22T20:03:42.204Z,14.63
2022-11-22T20:06:10.474Z,13.30
2022-11-22T20:08:38.348Z,14.45
2022-11-22T20:11:06.903Z,12.88
2022-11-22T20:13:35.885Z,14.25
2022-11-22T20:16:08.391Z,12.55
2022-11-22T20:18:37.261Z,13.57
2022-11-22T20:21:05.477Z,13.85
2022-11-22T20:23:33.547Z,13.52
2022-11-22T20:26:04.707Z,13.32
2022-11-22T20:28:32.328Z,13.18
2022-11-22T20:31:07.237Z,14.65
2022-11-22T20:33:35.161Z,13.98
2022-11-22T20:36:04.604Z,14.50
2022-11-22T20:38:35.220Z,12.55
2022-11-22T20:41:02.746Z,15.02
2022-11-22T20:43:31.471Z,13.82
2022-11-22T20:46:02.658Z,13.88
2022-11-22T20:48:30.413Z,14.75
2022-11-22T20:50:57.942Z,12.95
2022-11-22T20:53:26.747Z,14.48
2022-11-22T20:55:54.458Z,13.73
2022-11-22T20:58:22.290Z,13.30
2022-11-22T21:00:49.762Z,13.45
2022-11-22T21:03:17.308Z,13.80
2022-11-22T21:05:45.857Z,15.18
2022-11-22T21:08:13.409Z,14.88
2022-11-22T21:10:42.186Z,14.05
2022-11-22T21:13:09.660Z,13.32
2022-11-22T21:15:37.172Z,14.23
2022-11-22T21:18:24.098Z,14.40
2022-11-22T21:20:52.444Z,13.50
2022-11-22T21:23:20.013Z,14.50
2022-11-22T21:25:50.420Z,13.13
2022-11-22T21:28:18.154Z,14.23
2022-11-22T21:30:45.632Z,13.52
2022-11-22T21:33:13.068Z,15.70
2022-11-22T21:35:44.950Z,15.07
2022-11-22T21:38:13.450Z,14.32
2022-11-22T21:40:40.909Z,14.55
2022-11-22T21:43:09.747Z,14.43
2022-11-22T21:45:37.274Z,14.27
2022-11-22T21:48:05.015Z,15.48
2022-11-22T21:50:32.515Z,15.60
2022-11-22T21:53:00.034Z,13.85
2022-11-22T21:55:27.494Z,15.40
2022-11-22T21:57:55.003Z,13.57
2022-11-22T22:00:24.050Z,14.35
2022-11-22T22:02:51.601Z,14.10
2022-11-22T22:05:19.486Z,13.45
2022-11-22T22:07:52.432Z,13.25
2022-11-22T22:10:20.598Z,14.77
2022-11-22T22:12:50.952Z,13.38
2022-11-22T22:15:18.555Z,13.77
2022-11-22T22:17:47.493Z,13.48
2022-11-22T22:20:14.984Z,14.40
2022-11-22T22:22:42.505Z,13.02
2022-11-22T22:25:10.159Z,13.55
2022-11-22T22:27:37.619Z,13.98
2022-11-22T22:30:06.219Z,14.93
2022-11-22T22:32:35.414Z,14.80
2022-11-22T22:35:04.277Z,13.70
2022-11-22T22:37:31.770Z,13.90
2022-11-22T22:39:59.213Z,15.43
2022-11-22T22:42:26.728Z,14.50
2022-11-22T22:44:54.249Z,13.40
2022-11-22T22:47:21.724Z,14.77
2022-11-22T22:49:49.257Z,14.55
2022-11-22T22:52:18.122Z,15.20
2022-11-22T22:54:45.640Z,14.45
2022-11-22T22:57:13.144Z,15.50
2022-11-22T22:59:40.663Z,14.68
2022-11-22T23:02:08.103Z,14.13
2022-11-22T23:04:35.604Z,14.85
2022-11-22T23:07:03.195Z,14.80
2022-11-22T23:09:32.418Z,14.40
2022-11-22T23:12:12.006Z,15.07
2022-11-22T23:14:40.100Z,14.73
2022-11-22T23:17:08.130Z,13.68
2022-11-22T23:19:35.641Z,14.65
2022-11-22T23:22:04.392Z,14.32
2022-11-22T23:24:33.822Z,15.27
2022-11-22T23:27:01.411Z,14.18
2022-11-22T23:29:29.159Z,15.13
2022-11-22T23:31:56.817Z,14.30
2022-11-22T23:34:24.302Z,14.13
2022-11-22T23:36:51.818Z,14.05
2022-11-22T23:39:19.321Z,14.60
2022-11-22T23:41:48.120Z,15.63
2022-11-22T23:44:15.542Z,15.38
2022-11-22T23:46:43.049Z,13.27
2022-11-22T23:49:20.406Z,13.70
2022-11-22T23:51:50.208Z,14.18
2022-11-22T23:54:17.936Z,13.55
2022-11-22T23:56:45.409Z,13.75
2022-11-22T23:59:14.314Z,13.98
